Airport Name : Cut Bank Muni

Other Name : Cut Bank Muni

ICAO : KCTB

IATA :

FAA : CTB

Latitude : 48.608353

Longitude : -112.376144

Country : United States

Local Date and Time : 16 Jun 2024 19:25

 

TAF (Terminal Aerodrome Forecast)

KCTB 162320Z 1700/1724 33017G24KT P6SM BKN050 FM170100 31011KT P6SM SCT050 BKN080 TEMPO 1701/1704 -SHRA BKN050 FM170700 33005KT P6SM BKN045 FM171600 35008KT P6SM -SHRA BKN035

 

METAR (METeorological Aerodrome Report)

KCTB 170056Z AUTO 34014KT 10SM CLR 12/M01 A2986 RMK AO2 SLP109 T01171006

KCTB 162356Z AUTO 33017G24KT 10SM CLR 13/00 A2987 RMK AO2 PK WND 33029/2304 SLP113 T01280000 10150 20106 50000

KCTB 162256Z AUTO 34021KT 10SM CLR 12/01 A2988 RMK AO2 PK WND 33029/2236 SLP116 T01170011

KCTB 162156Z AUTO 32016G25KT 10SM FEW060 13/M01 A2987 RMK AO2 PK WND 34027/2129 SLP110 T01331006